createdAt,value
2022-09-22T00:02:45.791Z,5.60
2022-09-22T00:05:12.531Z,5.10
2022-09-22T00:10:07.583Z,4.90
2022-09-22T00:12:35.620Z,6.00
2022-09-22T00:15:03.354Z,5.10
2022-09-22T00:17:31.575Z,5.80
2022-09-22T00:19:58.304Z,5.70
2022-09-22T00:24:52.947Z,5.30
2022-09-22T00:27:19.679Z,5.90
2022-09-22T00:29:47.019Z,6.40
2022-09-22T00:32:14.345Z,6.80
2022-09-22T00:34:41.032Z,6.00
2022-09-22T00:37:07.750Z,6.70
2022-09-22T00:41:25.862Z,7.10
2022-09-22T00:44:21.601Z,6.70
2022-09-22T00:46:52.152Z,7.00
2022-09-22T00:49:18.918Z,7.60
2022-09-22T00:54:14.176Z,7.80
2022-09-22T00:57:03.555Z,8.10
2022-09-22T00:59:30.264Z,8.50
2022-09-22T01:01:56.993Z,7.50
2022-09-22T01:06:50.797Z,7.40
2022-09-22T01:11:44.100Z,6.70
2022-09-22T01:14:38.931Z,6.60
2022-09-22T01:17:37.210Z,7.10
2022-09-22T01:20:10.699Z,7.30
2022-09-22T01:23:15.287Z,6.80
2022-09-22T01:26:04.489Z,6.80
2022-09-22T01:28:44.809Z,6.60
2022-09-22T01:31:16.000Z,6.30
2022-09-22T01:33:51.231Z,5.60
2022-09-22T01:36:27.245Z,5.90
2022-09-22T01:39:09.291Z,5.40
2022-09-22T01:41:53.685Z,6.20
2022-09-22T01:44:25.318Z,5.90
2022-09-22T01:46:55.304Z,5.60
2022-09-22T01:49:23.042Z,6.20
2022-09-22T01:52:01.268Z,6.00
2022-09-22T01:54:39.165Z,6.10
2022-09-22T01:57:13.073Z,5.60
2022-09-22T01:59:40.058Z,6.50
2022-09-22T02:02:16.140Z,5.50
2022-09-22T02:04:46.614Z,6.60
2022-09-22T02:07:17.483Z,7.50
2022-09-22T02:09:44.159Z,5.70
2022-09-22T02:12:10.853Z,5.60
2022-09-22T02:14:37.619Z,6.10
2022-09-22T02:17:07.339Z,6.30
2022-09-22T02:19:36.299Z,5.60
2022-09-22T02:22:04.226Z,6.80
2022-09-22T02:24:35.077Z,5.50
2022-09-22T02:27:18.652Z,5.10
2022-09-22T02:29:49.439Z,5.60
2022-09-22T02:32:16.595Z,6.30
2022-09-22T02:34:44.060Z,6.60
2022-09-22T02:37:26.107Z,6.40
2022-09-22T02:40:18.487Z,6.10
2022-09-22T02:42:52.362Z,6.30
2022-09-22T02:45:26.928Z,6.40
2022-09-22T02:48:02.350Z,5.90
2022-09-22T02:50:29.030Z,7.10
2022-09-22T02:53:03.077Z,7.20
2022-09-22T02:55:29.845Z,7.10
2022-09-22T03:00:23.193Z,6.20
2022-09-22T03:02:49.893Z,6.90
2022-09-22T03:07:43.296Z,6.90
2022-09-22T03:10:10.208Z,7.00
2022-09-22T03:13:02.402Z,6.90
2022-09-22T03:15:29.110Z,6.20
2022-09-22T03:20:22.494Z,7.30
2022-09-22T03:25:15.828Z,6.10
2022-09-22T03:30:10.035Z,6.60
2022-09-22T03:32:37.611Z,7.00
2022-09-22T03:35:04.934Z,6.20
2022-09-22T03:37:32.551Z,6.50
2022-09-22T03:39:59.243Z,6.20
2022-09-22T03:42:25.922Z,5.90
2022-09-22T03:47:19.971Z,5.90
2022-09-22T03:49:46.660Z,6.10
2022-09-22T03:52:13.391Z,6.70
2022-09-22T03:57:06.655Z,6.00
2022-09-22T03:59:33.408Z,6.90
2022-09-22T04:04:28.998Z,6.60
2022-09-22T04:06:55.751Z,6.40
2022-09-22T04:11:49.117Z,7.40
2022-09-22T04:16:43.045Z,8.90
2022-09-22T04:19:10.116Z,12.40
2022-09-22T04:21:36.807Z,12.10
2022-09-22T04:24:03.737Z,13.60
2022-09-22T04:26:30.433Z,16.10
2022-09-22T04:28:57.100Z,13.10
2022-09-22T04:31:23.782Z,12.20
2022-09-22T04:33:50.768Z,12.80
2022-09-22T04:36:17.525Z,12.50
2022-09-22T04:41:10.815Z,10.40
2022-09-22T04:43:37.572Z,10.20
2022-09-22T04:48:31.831Z,11.30
2022-09-22T04:53:25.216Z,11.10
2022-09-22T04:58:18.498Z,9.50
2022-09-22T05:00:45.181Z,10.40
2022-09-22T05:03:13.000Z,10.30
2022-09-22T05:05:40.018Z,11.40
2022-09-22T05:08:07.828Z,11.40
2022-09-22T05:10:36.784Z,11.10
2022-09-22T05:13:04.587Z,11.00
2022-09-22T05:15:33.162Z,12.50
2022-09-22T05:17:59.838Z,10.90
2022-09-22T05:20:27.056Z,10.80
2022-09-22T05:22:54.768Z,10.70
2022-09-22T05:25:21.599Z,10.50
2022-09-22T05:27:55.197Z,9.70
2022-09-22T05:30:24.052Z,10.60
2022-09-22T05:32:50.776Z,11.80
2022-09-22T05:35:21.635Z,9.70
2022-09-22T05:37:49.187Z,9.80
2022-09-22T05:40:16.230Z,9.20
2022-09-22T05:42:43.899Z,9.50
2022-09-22T05:45:10.986Z,9.10
2022-09-22T05:47:37.840Z,9.30
2022-09-22T05:52:31.432Z,9.20
2022-09-22T05:57:27.691Z,10.00
2022-09-22T05:59:54.707Z,10.30
2022-09-22T06:02:26.200Z,10.00
2022-09-22T06:04:53.353Z,10.10
2022-09-22T06:09:50.937Z,9.60
2022-09-22T06:14:44.536Z,10.20
2022-09-22T06:19:39.256Z,10.70
2022-09-22T06:22:06.114Z,10.60
2022-09-22T06:26:59.529Z,9.40
2022-09-22T06:29:26.945Z,9.40
2022-09-22T06:31:53.795Z,9.60
2022-09-22T06:34:20.477Z,8.90
2022-09-22T06:36:47.135Z,8.40
2022-09-22T06:39:14.312Z,9.60
2022-09-22T06:41:41.019Z,8.20
2022-09-22T06:44:09.072Z,8.40
2022-09-22T06:46:35.813Z,8.30
2022-09-22T06:49:02.623Z,7.50
2022-09-22T06:53:57.042Z,8.80
2022-09-22T06:56:25.488Z,9.40
2022-09-22T06:59:09.322Z,9.00
2022-09-22T07:01:37.912Z,9.10
2022-09-22T07:04:04.778Z,9.20
2022-09-22T07:08:58.376Z,8.50
2022-09-22T07:13:53.428Z,8.90
2022-09-22T07:16:22.093Z,8.70
2022-09-22T07:18:50.614Z,8.00
2022-09-22T07:21:22.661Z,8.40
2022-09-22T07:23:50.041Z,8.90
2022-09-22T07:26:20.025Z,9.60
2022-09-22T07:28:50.408Z,7.80
2022-09-22T07:31:17.583Z,6.40
2022-09-22T07:33:45.326Z,6.80
2022-09-22T07:36:16.769Z,5.70
2022-09-22T07:38:44.343Z,6.10
2022-09-22T07:41:13.231Z,5.70
2022-09-22T07:43:40.673Z,5.10
2022-09-22T07:46:07.935Z,4.70
2022-09-22T07:48:41.699Z,4.90
2022-09-22T07:51:16.772Z,4.90
2022-09-22T07:53:44.979Z,4.90
2022-09-22T07:56:13.484Z,4.70
2022-09-22T07:58:41.314Z,5.40
2022-09-22T08:01:11.220Z,5.30
2022-09-22T08:03:38.258Z,4.20
2022-09-22T08:06:12.622Z,5.00
2022-09-22T08:08:43.930Z,4.20
2022-09-22T08:11:15.581Z,4.00
2022-09-22T08:13:43.745Z,4.30
2022-09-22T08:16:11.876Z,4.50
2022-09-22T08:18:39.700Z,5.50
2022-09-22T08:21:07.100Z,5.30
2022-09-22T08:23:34.052Z,5.30
2022-09-22T08:26:08.423Z,7.00
2022-09-22T08:28:35.344Z,5.90
2022-09-22T08:31:02.535Z,4.60
2022-09-22T08:33:30.479Z,5.00
2022-09-22T08:35:58.792Z,4.80
2022-09-22T08:38:28.183Z,4.80
2022-09-22T08:41:04.098Z,5.00
2022-09-22T08:43:31.154Z,4.50
2022-09-22T08:45:58.341Z,4.70
2022-09-22T08:48:45.187Z,4.60
2022-09-22T08:51:45.299Z,4.50
2022-09-22T08:54:12.072Z,4.60
2022-09-22T08:59:23.087Z,4.30
2022-09-22T09:02:17.804Z,4.90
2022-09-22T09:05:02.927Z,4.00
2022-09-22T09:07:48.414Z,4.50
2022-09-22T09:10:24.270Z,3.80
2022-09-22T09:13:08.415Z,2.80
2022-09-22T09:16:04.511Z,3.40
2022-09-22T09:18:37.259Z,3.50
2022-09-22T09:21:05.991Z,3.30
2022-09-22T09:26:33.053Z,3.50
2022-09-22T09:29:03.890Z,3.50
2022-09-22T09:31:39.751Z,3.50
2022-09-22T09:34:08.439Z,2.90
2022-09-22T09:36:37.877Z,2.70
2022-09-22T09:39:20.768Z,2.90
2022-09-22T09:41:47.819Z,2.90
2022-09-22T09:44:20.419Z,3.00
2022-09-22T09:47:19.584Z,3.40
2022-09-22T09:49:52.572Z,3.30
2022-09-22T09:52:20.784Z,3.20
2022-09-22T09:54:47.593Z,3.30
2022-09-22T09:57:18.165Z,3.00
2022-09-22T10:00:04.679Z,3.60
2022-09-22T10:02:50.637Z,2.60
2022-09-22T10:05:17.407Z,3.40
2022-09-22T10:07:46.053Z,2.40
2022-09-22T10:10:29.111Z,3.00
2022-09-22T10:13:18.151Z,3.40
2022-09-22T10:15:45.154Z,3.20
2022-09-22T10:18:24.139Z,2.80
2022-09-22T10:21:15.553Z,4.40
2022-09-22T10:23:44.801Z,4.50
2022-09-22T10:26:26.221Z,3.20
2022-09-22T10:29:18.410Z,3.10
2022-09-22T10:32:03.801Z,3.10
2022-09-22T10:34:32.201Z,3.10
2022-09-22T10:36:59.790Z,3.40
2022-09-22T10:39:32.745Z,3.70
2022-09-22T10:42:00.319Z,3.40
2022-09-22T10:44:38.696Z,3.80
2022-09-22T10:47:31.402Z,3.60
2022-09-22T10:50:21.924Z,3.80
2022-09-22T10:52:56.930Z,3.70
2022-09-22T10:55:32.961Z,3.60
2022-09-22T10:58:08.938Z,3.30
2022-09-22T11:00:39.649Z,3.70
2022-09-22T11:03:37.343Z,3.70
2022-09-22T11:06:32.120Z,3.60
2022-09-22T11:09:34.835Z,4.00
2022-09-22T11:12:16.842Z,3.50
2022-09-22T11:15:03.633Z,3.00
2022-09-22T11:17:45.749Z,3.20
2022-09-22T11:20:32.354Z,3.20
2022-09-22T11:23:24.791Z,3.50
2022-09-22T11:25:55.268Z,3.70
2022-09-22T11:28:28.431Z,3.50
2022-09-22T11:30:57.637Z,3.40
2022-09-22T11:33:55.472Z,2.90
2022-09-22T11:36:51.279Z,2.80
2022-09-22T11:39:33.767Z,3.00
2022-09-22T11:42:16.492Z,3.10
2022-09-22T11:44:56.651Z,2.80
2022-09-22T11:47:37.005Z,4.50
2022-09-22T11:50:14.146Z,3.60
2022-09-22T11:53:20.971Z,3.10
2022-09-22T11:56:00.019Z,3.20
2022-09-22T11:58:31.001Z,3.30
2022-09-22T12:01:12.363Z,3.00
2022-09-22T12:03:55.626Z,3.40
2022-09-22T12:06:25.453Z,2.80
2022-09-22T12:11:28.271Z,3.70
2022-09-22T12:13:55.491Z,2.20
2022-09-22T12:16:46.180Z,2.40
2022-09-22T12:19:31.707Z,2.70
2022-09-22T12:22:07.648Z,3.40
2022-09-22T12:24:34.875Z,3.10
2022-09-22T12:27:24.265Z,3.10
2022-09-22T12:30:02.153Z,3.00
2022-09-22T12:32:35.056Z,3.20
2022-09-22T12:35:01.921Z,3.40
2022-09-22T12:37:39.175Z,3.10
2022-09-22T12:42:53.344Z,4.60
2022-09-22T12:45:35.511Z,3.40
2022-09-22T12:48:10.550Z,2.80
2022-09-22T12:50:42.193Z,3.00
2022-09-22T12:53:21.337Z,2.50
2022-09-22T12:58:20.836Z,3.30
2022-09-22T13:00:49.130Z,2.70
2022-09-22T13:03:25.279Z,4.20
2022-09-22T13:05:52.919Z,3.00
2022-09-22T13:08:45.890Z,2.70
2022-09-22T13:11:12.698Z,8.80
2022-09-22T13:13:43.168Z,5.00
2022-09-22T13:16:16.045Z,2.70
2022-09-22T13:18:52.318Z,2.30
2022-09-22T13:21:22.908Z,2.50
2022-09-22T13:23:49.676Z,9.60
2022-09-22T13:28:43.540Z,6.20
2022-09-22T13:31:15.398Z,4.70
2022-09-22T13:33:42.404Z,3.70
2022-09-22T13:36:19.757Z,2.80
2022-09-22T13:38:50.970Z,3.00
2022-09-22T13:41:19.437Z,2.90
2022-09-22T13:43:48.304Z,3.20
2022-09-22T13:46:32.005Z,3.80
2022-09-22T13:48:58.820Z,3.40
2022-09-22T13:51:26.235Z,3.60
2022-09-22T13:53:54.270Z,3.40
2022-09-22T13:56:22.133Z,3.50
2022-09-22T13:58:50.036Z,3.50
2022-09-22T14:01:23.728Z,2.80
2022-09-22T14:03:51.276Z,3.20
2022-09-22T14:06:24.870Z,3.60
2022-09-22T14:08:51.690Z,3.60
2022-09-22T14:11:20.417Z,3.20
2022-09-22T14:13:53.208Z,3.20
2022-09-22T14:16:26.077Z,3.70
2022-09-22T14:18:57.704Z,3.50
2022-09-22T14:21:24.516Z,3.70
2022-09-22T14:23:51.759Z,3.60
2022-09-22T14:26:18.534Z,3.80
2022-09-22T14:31:14.070Z,3.30
2022-09-22T14:33:40.923Z,3.30
2022-09-22T14:36:08.302Z,3.20
2022-09-22T14:38:42.998Z,3.20
2022-09-22T14:41:25.691Z,2.50
2022-09-22T14:43:53.117Z,2.90
2022-09-22T14:46:33.968Z,3.10
2022-09-22T14:49:40.852Z,3.80
2022-09-22T14:52:18.486Z,3.80
2022-09-22T14:54:45.323Z,2.90
2022-09-22T14:57:13.514Z,2.30
2022-09-22T15:00:05.559Z,3.00
2022-09-22T15:02:36.263Z,3.20
2022-09-22T15:05:03.625Z,3.10
2022-09-22T15:07:34.411Z,3.20
2022-09-22T15:10:24.130Z,3.90
2022-09-22T15:12:51.221Z,5.00
2022-09-22T15:15:19.316Z,5.20
2022-09-22T15:18:06.273Z,5.00
2022-09-22T15:20:40.818Z,5.90
2022-09-22T15:23:28.421Z,6.20
2022-09-22T15:25:55.614Z,5.80
2022-09-22T15:28:23.861Z,5.80
2022-09-22T15:30:51.838Z,5.30
2022-09-22T15:33:19.345Z,5.70
2022-09-22T15:35:47.488Z,12.30
2022-09-22T15:38:19.567Z,10.20
2022-09-22T15:40:47.502Z,7.70
2022-09-22T15:43:20.430Z,7.80
2022-09-22T15:45:48.830Z,7.50
2022-09-22T15:48:20.234Z,11.00
2022-09-22T15:50:47.065Z,11.60
2022-09-22T15:55:40.581Z,7.90
2022-09-22T16:00:36.810Z,6.30
2022-09-22T16:03:10.132Z,6.10
2022-09-22T16:05:40.874Z,6.10
2022-09-22T16:08:08.705Z,6.00
2022-09-22T16:10:36.346Z,5.40
2022-09-22T16:13:03.701Z,6.10
2022-09-22T16:15:32.278Z,5.70
2022-09-22T16:17:59.072Z,5.50
2022-09-22T16:22:52.709Z,5.30
2022-09-22T16:30:14.206Z,4.70
2022-09-22T16:32:41.388Z,5.10
2022-09-22T16:35:09.018Z,5.30
2022-09-22T16:37:35.858Z,4.90
2022-09-22T16:40:02.780Z,4.10
2022-09-22T16:42:29.687Z,4.60
2022-09-22T16:47:23.231Z,5.50
2022-09-22T16:52:19.187Z,6.20
2022-09-22T16:54:46.340Z,7.10
2022-09-22T16:57:13.402Z,8.10
2022-09-22T16:59:40.450Z,8.90
2022-09-22T17:02:07.394Z,10.90
2022-09-22T17:04:35.001Z,12.40
2022-09-22T17:07:02.008Z,11.20
2022-09-22T17:09:31.753Z,11.80
2022-09-22T17:11:58.670Z,11.60
2022-09-22T17:14:27.904Z,11.00
2022-09-22T17:16:55.503Z,10.90
2022-09-22T17:19:24.001Z,11.50
2022-09-22T17:21:52.897Z,12.50
2022-09-22T17:24:20.028Z,13.70
2022-09-22T17:26:51.246Z,13.90
2022-09-22T17:29:21.110Z,13.30
2022-09-22T17:31:48.576Z,14.70
2022-09-22T17:34:15.648Z,16.40
2022-09-22T17:36:42.580Z,16.70
2022-09-22T17:39:10.719Z,22.40
2022-09-22T17:41:42.537Z,24.90
2022-09-22T17:44:11.192Z,23.70
2022-09-22T17:46:58.110Z,25.40
2022-09-22T17:49:43.671Z,28.80
2022-09-22T17:52:29.241Z,25.70
2022-09-22T17:55:09.776Z,19.30
2022-09-22T17:57:38.514Z,14.80
2022-09-22T18:00:10.737Z,14.50
2022-09-22T18:02:38.963Z,14.40
2022-09-22T18:05:12.758Z,14.10
2022-09-22T18:07:40.449Z,14.80
2022-09-22T18:10:09.312Z,15.10
2022-09-22T18:12:36.264Z,13.70
2022-09-22T18:15:03.973Z,12.20
2022-09-22T18:17:33.397Z,13.20
2022-09-22T18:20:00.554Z,15.50
2022-09-22T18:22:28.223Z,16.10
2022-09-22T18:24:55.690Z,13.90
2022-09-22T18:27:23.932Z,14.30
2022-09-22T18:29:51.200Z,12.20
2022-09-22T18:32:21.322Z,12.30
2022-09-22T18:34:48.395Z,12.10
2022-09-22T18:37:15.920Z,10.20
2022-09-22T18:39:45.718Z,12.20
2022-09-22T18:42:13.187Z,19.60
2022-09-22T18:44:41.344Z,24.40
2022-09-22T18:47:13.095Z,35.40
2022-09-22T18:49:40.756Z,16.50
2022-09-22T18:52:07.992Z,11.50
2022-09-22T18:54:36.165Z,11.70
2022-09-22T18:57:07.113Z,9.40
2022-09-22T18:59:34.026Z,9.60
2022-09-22T19:02:00.964Z,10.30
2022-09-22T19:04:27.889Z,11.40
2022-09-22T19:07:13.952Z,11.80
2022-09-22T19:09:41.337Z,13.00
2022-09-22T19:12:09.108Z,14.60
2022-09-22T19:14:39.224Z,62.80
2022-09-22T19:17:07.354Z,52.90
2022-09-22T19:19:34.452Z,27.00
2022-09-22T19:22:01.295Z,15.30
2022-09-22T19:24:28.137Z,12.20
2022-09-22T19:26:58.016Z,10.80
2022-09-22T19:29:24.836Z,9.50
2022-09-22T19:31:51.700Z,10.20
2022-09-22T19:34:18.479Z,9.30
2022-09-22T19:39:11.899Z,27.70
2022-09-22T19:44:07.710Z,11.00
2022-09-22T19:46:34.533Z,10.10
2022-09-22T19:49:01.346Z,13.80
2022-09-22T19:53:54.723Z,17.40
2022-09-22T19:56:21.421Z,20.60
2022-09-22T20:01:28.934Z,12.80
2022-09-22T20:03:56.678Z,14.30
2022-09-22T20:06:23.377Z,14.80
2022-09-22T20:11:26.359Z,19.10
2022-09-22T20:14:12.321Z,18.20
2022-09-22T20:16:39.771Z,24.00
2022-09-22T20:19:08.597Z,9.50
2022-09-22T20:21:35.664Z,13.20
2022-09-22T20:24:03.979Z,20.00
2022-09-22T20:26:31.583Z,42.10
2022-09-22T20:28:59.177Z,32.10
2022-09-22T20:31:25.947Z,13.50
2022-09-22T20:36:19.759Z,28.60
2022-09-22T20:38:46.593Z,30.80
2022-09-22T20:43:50.015Z,9.00
2022-09-22T20:46:19.858Z,7.20
2022-09-22T20:48:46.680Z,6.10
2022-09-22T20:53:40.392Z,5.50
2022-09-22T20:56:11.256Z,5.00
2022-09-22T20:58:42.767Z,4.90
2022-09-22T21:01:10.527Z,4.40
2022-09-22T21:03:38.832Z,4.90
2022-09-22T21:06:07.314Z,5.00
2022-09-22T21:08:55.562Z,5.60
2022-09-22T21:11:22.401Z,10.70
2022-09-22T21:16:20.133Z,6.30
2022-09-22T21:18:48.824Z,4.00
2022-09-22T21:21:17.696Z,4.80
2022-09-22T21:23:45.105Z,4.10
2022-09-22T21:26:12.397Z,50.60
2022-09-22T21:28:39.136Z,23.80
2022-09-22T21:33:33.848Z,17.20
2022-09-22T21:36:14.055Z,8.70
2022-09-22T21:38:42.053Z,5.80
2022-09-22T21:41:16.834Z,5.30
2022-09-22T21:43:43.749Z,4.70
2022-09-22T21:46:12.245Z,6.40
2022-09-22T21:48:39.667Z,6.40
2022-09-22T21:51:07.341Z,5.90
2022-09-22T21:53:34.863Z,4.40
2022-09-22T21:56:06.573Z,4.00
2022-09-22T21:58:36.082Z,4.80
2022-09-22T22:01:07.061Z,4.90
2022-09-22T22:03:34.180Z,3.80
2022-09-22T22:06:20.207Z,3.80
2022-09-22T22:08:53.268Z,4.10
2022-09-22T22:11:22.226Z,4.00
2022-09-22T22:13:52.035Z,5.90
2022-09-22T22:16:20.214Z,4.00
2022-09-22T22:18:47.159Z,4.10
2022-09-22T22:21:16.017Z,5.00
2022-09-22T22:23:47.719Z,5.20
2022-09-22T22:26:20.075Z,5.30
2022-09-22T22:28:47.516Z,4.70
2022-09-22T22:31:19.384Z,4.50
2022-09-22T22:33:47.119Z,4.10
2022-09-22T22:36:14.742Z,4.90
2022-09-22T22:38:41.768Z,4.70
2022-09-22T22:41:10.738Z,5.50
2022-09-22T22:43:37.746Z,5.00
2022-09-22T22:46:05.079Z,4.70
2022-09-22T22:48:31.998Z,5.40
2022-09-22T22:53:25.587Z,5.00
2022-09-22T22:56:02.618Z,5.80
2022-09-22T22:58:31.107Z,5.30
2022-09-22T23:01:11.042Z,5.50
2022-09-22T23:03:44.062Z,5.40
2022-09-22T23:06:15.756Z,6.50
2022-09-22T23:08:42.664Z,5.80
2022-09-22T23:11:17.540Z,5.60
2022-09-22T23:13:50.980Z,6.40
2022-09-22T23:16:28.399Z,5.70
2022-09-22T23:18:57.600Z,5.80
2022-09-22T23:21:24.283Z,5.80
2022-09-22T23:23:50.962Z,5.70
2022-09-22T23:28:44.632Z,6.20
2022-09-22T23:31:16.231Z,6.60
2022-09-22T23:33:45.380Z,6.30
2022-09-22T23:36:14.497Z,5.40
2022-09-22T23:38:41.174Z,6.90
2022-09-22T23:41:08.858Z,5.50
2022-09-22T23:43:35.617Z,6.10
2022-09-22T23:48:31.815Z,5.90
2022-09-22T23:50:58.924Z,6.50
2022-09-22T23:53:29.867Z,6.50
2022-09-22T23:55:56.606Z,6.40
